Time;durP1;ratioP1;P1;durP2;ratioP2;P2;SDS_P1;SDS_P2;PMS_P1;PMS_P2;Temp;Humidity;BMP_temperature;BMP_pressure;BME280_temperature;BME280_humidity;BME280_pressure;Samples;Min_cycle;Max_cycle;Signal;HPM_P1;HPM_P2
2022/05/03 00:02:13;;;;;;;1.90;1.00;;;;;;;7.60;70.85;99446.97;5101142;28;20039;-71
2022/05/03 00:05:04;;;;;;;2.35;0.98;;;;;;;7.60;71.48;99450.50;5092488;28;20048;-72
2022/05/03 00:07:48;;;;;;;2.83;0.85;;;;;;;7.56;71.32;99449.47;5110206;28;20416;-71
2022/05/03 00:10:24;;;;;;;2.70;1.40;;;;;;;7.57;71.31;99443.72;5112801;28;20080;-71
2022/05/03 00:13:12;;;;;;;3.45;0.80;;;;;;;7.57;71.64;99457.38;5110570;28;20062;-71
2022/05/03 00:15:40;;;;;;;1.27;0.88;;;;;;;7.54;72.08;99457.13;5103804;28;20036;-71
2022/05/03 00:18:07;;;;;;;1.08;0.98;;;;;;;7.49;72.15;99458.00;5094852;28;20040;-72
2022/05/03 00:20:32;;;;;;;1.45;1.00;;;;;;;7.46;72.01;99453.13;5091898;28;20506;-72
2022/05/03 00:22:58;;;;;;;1.52;1.13;;;;;;;7.39;72.44;99449.91;5091387;28;20085;-72
2022/05/03 00:25:24;;;;;;;0.98;0.82;;;;;;;7.35;71.45;99457.06;5103205;28;20044;-72
2022/05/03 00:27:51;;;;;;;3.15;0.90;;;;;;;7.33;71.88;99444.81;5074299;28;20044;-72
2022/05/03 00:30:17;;;;;;;1.70;0.90;;;;;;;7.34;71.69;99438.25;5092909;28;20047;-72
2022/05/03 00:32:43;;;;;;;1.05;0.85;;;;;;;7.29;71.62;99430.94;5080154;28;20043;-72
2022/05/03 00:35:09;;;;;;;3.35;1.17;;;;;;;7.23;70.56;99419.25;5101581;28;20043;-72
2022/05/03 00:37:35;;;;;;;1.75;0.90;;;;;;;7.22;71.01;99422.28;5101212;28;20039;-72
2022/05/03 00:40:02;;;;;;;3.80;1.25;;;;;;;7.20;70.43;99432.66;5098042;28;20126;-72
2022/05/03 00:42:42;;;;;;;2.65;1.08;;;;;;;7.15;70.38;99441.72;5091721;28;20036;-72
2022/05/03 00:45:28;;;;;;;1.83;1.10;;;;;;;7.07;70.52;99438.78;5091965;28;20032;-72
2022/05/03 00:48:03;;;;;;;2.58;1.40;;;;;;;6.99;70.16;99440.22;5103935;28;20135;-72
2022/05/03 00:50:34;;;;;;;2.67;1.00;;;;;;;6.95;70.19;99434.53;5109648;28;20100;-72
2022/05/03 00:53:05;;;;;;;2.50;1.23;;;;;;;6.88;71.13;99428.59;5107580;28;20522;-72
2022/05/03 00:55:54;;;;;;;2.88;0.90;;;;;;;6.82;70.76;99421.56;5106103;28;20035;-72
2022/05/03 00:58:54;;;;;;;1.58;1.00;;;;;;;6.77;70.98;99431.69;5098230;28;20044;-71
2022/05/03 01:01:38;;;;;;;1.23;1.00;;;;;;;6.79;71.29;99429.50;5091681;28;20047;-72
2022/05/03 01:04:12;;;;;;;2.20;1.10;;;;;;;6.76;71.47;99433.59;5091838;28;20524;-72
2022/05/03 01:06:50;;;;;;;3.28;1.00;;;;;;;6.76;71.25;99436.31;5096971;28;20040;-71
2022/05/03 01:09:23;;;;;;;1.33;0.98;;;;;;;6.73;71.46;99430.63;5090374;28;20062;-71
2022/05/03 01:12:09;;;;;;;2.63;1.05;;;;;;;6.72;71.92;99423.56;5094126;28;20135;-71
2022/05/03 01:15:08;;;;;;;3.03;1.35;;;;;;;6.74;71.42;99426.81;5104149;28;20047;-72
2022/05/03 01:17:44;;;;;;;6.35;1.48;;;;;;;6.70;71.31;99423.84;5091304;28;20040;-72
2022/05/03 01:20:13;;;;;;;2.50;1.05;;;;;;;6.63;71.29;99423.38;5092325;28;20028;-72
2022/05/03 01:22:57;;;;;;;1.45;1.25;;;;;;;6.59;71.54;99422.28;5090368;28;20119;-71
2022/05/03 01:25:45;;;;;;;3.78;1.10;;;;;;;6.62;71.48;99416.28;5107200;28;20534;-72
2022/05/03 01:28:48;;;;;;;5.22;1.27;;;;;;;6.59;71.38;99433.19;5111605;28;20051;-71
2022/05/03 01:31:14;;;;;;;2.00;1.20;;;;;;;6.51;71.39;99431.09;5110108;28;20429;-71
2022/05/03 01:33:45;;;;;;;3.08;1.23;;;;;;;6.47;71.24;99427.31;5111397;28;20067;-71
2022/05/03 01:36:11;;;;;;;2.00;1.05;;;;;;;6.42;71.42;99432.78;5092347;28;20044;-71
2022/05/03 01:38:55;;;;;;;4.60;1.20;;;;;;;6.34;71.76;99435.00;5101518;28;20035;-71
2022/05/03 01:41:49;;;;;;;3.88;1.35;;;;;;;6.29;71.73;99428.78;5091052;28;20043;-70
2022/05/03 01:44:37;;;;;;;3.15;1.13;;;;;;;6.23;71.08;99430.72;5086368;28;20048;-71
2022/05/03 01:47:33;;;;;;;1.67;1.20;;;;;;;6.19;71.17;99428.84;5093878;28;20559;-71
2022/05/03 01:50:20;;;;;;;2.35;1.00;;;;;;;6.11;71.53;99424.81;5091151;28;20094;-71
2022/05/03 01:52:55;;;;;;;2.83;1.10;;;;;;;6.05;71.02;99423.19;5091358;28;20595;-71
2022/05/03 01:55:46;;;;;;;2.65;1.08;;;;;;;5.96;71.59;99427.63;5102745;28;20130;-71
2022/05/03 01:58:36;;;;;;;4.35;1.42;;;;;;;5.86;71.04;99428.44;5110223;28;20043;-71
2022/05/03 02:01:13;;;;;;;3.03;1.10;;;;;;;5.79;72.11;99435.28;5099309;28;20037;-71
2022/05/03 02:03:48;;;;;;;4.05;1.33;;;;;;;5.71;72.22;99429.31;5093316;28;20039;-71
2022/05/03 02:06:15;;;;;;;1.33;1.08;;;;;;;5.68;72.51;99429.88;5101057;28;20039;-71
2022/05/03 02:09:04;;;;;;;1.65;1.02;;;;;;;5.62;72.70;99433.72;5096940;28;20036;-71
2022/05/03 02:11:50;;;;;;;5.40;1.20;;;;;;;5.54;72.54;99439.72;5105432;28;20124;-71
2022/05/03 02:17:27;;;;;;;3.10;1.27;;;;;;;5.48;72.88;99440.84;5089338;28;20039;-72
2022/05/03 02:20:11;;;;;;;1.95;1.17;;;;;;;5.41;73.63;99427.53;5090745;28;20604;-71
2022/05/03 02:22:46;;;;;;;4.70;1.20;;;;;;;5.36;73.53;99432.97;5091607;28;20040;-71
2022/05/03 02:25:20;;;;;;;2.35;1.05;;;;;;;5.35;73.35;99435.97;5092754;28;20040;-70
2022/05/03 02:27:52;;;;;;;2.55;1.42;;;;;;;5.32;73.88;99433.81;5093421;28;20068;-71
2022/05/03 02:30:19;;;;;;;2.40;0.98;;;;;;;5.30;73.69;99438.72;5094711;28;20135;-72
2022/05/03 02:32:56;;;;;;;1.90;1.27;;;;;;;5.28;74.07;99435.47;5103695;28;20040;-72
2022/05/03 02:35:23;;;;;;;3.40;1.10;;;;;;;5.23;74.14;99435.50;5111495;28;20036;-71
2022/05/03 02:37:53;;;;;;;1.52;1.00;;;;;;;5.25;74.49;99431.41;5093786;28;20549;-71
2022/05/03 02:40:22;;;;;;;2.40;0.88;;;;;;;5.26;74.07;99437.66;5093567;28;20505;-71
2022/05/03 02:42:51;;;;;;;2.40;1.10;;;;;;;5.25;74.10;99430.59;5095071;28;20039;-72
2022/05/03 02:45:17;;;;;;;2.20;1.15;;;;;;;5.25;74.21;99439.56;5096282;28;20032;-72
2022/05/03 02:47:43;;;;;;;2.83;1.02;;;;;;;5.24;74.32;99434.41;5100800;28;20132;-72
2022/05/03 02:50:08;;;;;;;1.63;1.00;;;;;;;5.38;74.50;99432.69;5093996;28;20122;-72
2022/05/03 02:53:03;;;;;;;2.50;1.10;;;;;;;5.66;74.16;99440.25;5094421;28;20044;-72
2022/05/03 02:55:40;;;;;;;2.40;1.35;;;;;;;6.03;73.15;99442.53;5093052;28;20038;-71
2022/05/03 02:58:19;;;;;;;1.38;1.00;;;;;;;6.40;72.33;99440.41;5108620;28;20047;-71
2022/05/03 03:04:28;;;;;;;1.85;0.93;;;;;;;7.21;69.17;99439.75;5093987;28;20425;-70
2022/05/03 03:06:55;;;;;;;2.63;1.10;;;;;;;7.53;67.97;99437.22;5049032;28;20503;-70
2022/05/03 03:09:41;;;;;;;2.05;1.23;;;;;;;7.90;66.75;99432.94;5086019;28;20088;-70
2022/05/03 03:12:12;;;;;;;1.85;1.00;;;;;;;8.12;65.66;99433.19;5104995;28;20079;-72
2022/05/03 03:14:48;;;;;;;1.92;1.02;;;;;;;8.41;64.08;99435.81;5101174;28;20093;-71
2022/05/03 03:17:22;;;;;;;1.65;1.17;;;;;;;8.66;62.81;99431.06;5096196;28;20040;-71
2022/05/03 03:20:04;;;;;;;4.28;1.00;;;;;;;9.00;62.23;99430.75;5113805;28;20031;-71
2022/05/03 03:22:33;;;;;;;4.03;1.23;;;;;;;9.37;61.06;99443.50;5113288;28;20039;-72
2022/05/03 03:24:59;;;;;;;2.35;1.00;;;;;;;9.63;59.67;99433.69;5095882;28;20036;-72
2022/05/03 03:27:26;;;;;;;4.40;1.33;;;;;;;9.71;58.67;99429.41;5094438;28;20131;-72
2022/05/03 03:29:55;;;;;;;4.07;1.00;;;;;;;9.89;58.22;99431.25;5093464;28;20040;-72
2022/05/03 03:32:24;;;;;;;1.60;0.88;;;;;;;10.19;56.03;99426.22;5101027;28;20113;-72
2022/05/03 03:34:53;;;;;;;4.10;1.02;;;;;;;10.54;55.09;99441.06;5107386;28;20541;-72
2022/05/03 03:37:23;;;;;;;1.70;0.88;;;;;;;10.91;53.81;99450.06;5114249;27;20043;-71
2022/05/03 03:39:49;;;;;;;2.17;0.82;;;;;;;11.18;52.96;99444.44;5099518;28;20122;-70
2022/05/03 03:42:14;;;;;;;1.23;0.75;;;;;;;11.46;51.83;99447.84;5103301;28;20762;-71
2022/05/03 03:44:40;;;;;;;2.67;0.90;;;;;;;11.77;50.82;99439.53;5093068;28;20086;-71
2022/05/03 03:47:06;;;;;;;2.20;0.93;;;;;;;11.72;50.43;99448.75;5100046;28;20123;-72
2022/05/03 03:49:33;;;;;;;3.88;0.88;;;;;;;11.68;50.35;99453.25;5091824;28;20042;-71
2022/05/03 03:52:09;;;;;;;5.80;0.88;;;;;;;11.75;50.67;99452.78;5091652;28;20094;-71
2022/05/03 03:54:35;;;;;;;2.05;0.82;;;;;;;11.75;50.10;99453.59;5102602;28;20039;-71
2022/05/03 03:57:04;;;;;;;3.40;1.30;;;;;;;11.90;49.73;99446.88;5101667;28;20044;-71
2022/05/03 03:59:31;;;;;;;1.77;0.93;;;;;;;12.03;49.15;99447.91;5101851;28;20036;-71
2022/05/03 04:02:01;;;;;;;2.45;0.80;;;;;;;12.31;47.59;99443.72;5091322;28;20063;-71
2022/05/03 04:04:31;;;;;;;1.90;0.90;;;;;;;12.38;46.76;99446.84;5092984;28;20042;-71
2022/05/03 04:06:57;;;;;;;1.85;1.20;;;;;;;12.23;46.41;99450.03;5104410;28;20070;-72
2022/05/03 04:09:23;;;;;;;1.80;0.60;;;;;;;12.35;45.84;99450.22;5105037;28;20151;-71
2022/05/03 04:11:48;;;;;;;2.05;0.88;;;;;;;12.62;45.12;99445.53;5103936;28;20505;-71
2022/05/03 04:14:14;;;;;;;1.02;0.60;;;;;;;13.06;43.45;99446.31;5103574;27;20035;-70
2022/05/03 04:16:41;;;;;;;0.63;0.63;;;;;;;13.32;42.08;99452.59;5112515;27;20039;-69
2022/05/03 04:19:07;;;;;;;0.98;0.60;;;;;;;13.26;42.42;99454.72;5111195;27;20591;-70
2022/05/03 04:21:33;;;;;;;2.17;0.77;;;;;;;13.52;41.40;99462.09;5107932;27;20036;-70
2022/05/03 04:23:59;;;;;;;1.05;0.60;;;;;;;13.68;40.81;99462.38;5109125;28;20032;-69
2022/05/03 04:26:25;;;;;;;3.20;0.57;;;;;;;13.86;40.12;99456.44;5111929;27;20116;-69
2022/05/03 04:28:58;;;;;;;2.28;0.40;;;;;;;13.95;39.73;99456.44;5112169;27;20031;-69
2022/05/03 04:31:35;;;;;;;0.57;0.40;;;;;;;14.16;39.25;99450.94;5096295;27;20114;-69
2022/05/03 04:34:03;;;;;;;1.50;0.40;;;;;;;14.01;39.94;99459.78;5109984;27;20043;-69
2022/05/03 04:36:32;;;;;;;0.52;0.50;;;;;;;14.02;39.69;99445.66;5107876;28;20069;-69
2022/05/03 04:38:59;;;;;;;0.63;0.40;;;;;;;13.96;38.88;99451.72;5110759;28;20035;-70
2022/05/03 04:41:25;;;;;;;0.75;0.47;;;;;;;13.73;38.88;99448.44;5110252;27;20042;-70
2022/05/03 04:43:51;;;;;;;0.60;0.50;;;;;;;13.95;39.35;99455.63;5110284;27;20036;-70
2022/05/03 04:46:17;;;;;;;2.58;0.50;;;;;;;13.95;38.42;99464.69;5101807;28;20046;-70
2022/05/03 04:48:43;;;;;;;1.35;0.60;;;;;;;14.04;38.46;99451.66;5110119;27;20053;-70
2022/05/03 04:51:23;;;;;;;2.05;0.50;;;;;;;14.54;37.49;99456.38;5094734;27;20059;-70
2022/05/03 04:53:50;;;;;;;0.47;0.32;;;;;;;14.78;37.03;99452.97;5107426;27;20047;-70
2022/05/03 04:56:20;;;;;;;0.40;0.40;;;;;;;14.81;36.05;99457.00;5109248;28;21409;-69
2022/05/03 04:58:47;;;;;;;0.47;0.38;;;;;;;14.99;34.93;99450.19;5110809;28;20043;-70
2022/05/03 05:01:12;;;;;;;1.50;0.50;;;;;;;14.93;35.39;99459.84;5107207;28;20649;-70
2022/05/03 05:03:39;;;;;;;1.38;0.35;;;;;;;15.21;34.92;99463.59;5110194;28;20031;-70
2022/05/03 05:06:04;;;;;;;1.58;0.52;;;;;;;15.26;34.87;99463.38;5107290;28;20416;-70
2022/05/03 05:08:30;;;;;;;0.65;0.30;;;;;;;14.89;35.12;99469.91;5107459;28;20123;-69
2022/05/03 05:10:55;;;;;;;0.85;0.50;;;;;;;14.88;34.75;99460.03;5107491;27;20039;-70
2022/05/03 05:13:21;;;;;;;1.45;0.40;;;;;;;14.56;35.78;99469.84;5110689;28;20035;-70
2022/05/03 05:15:47;;;;;;;0.63;0.40;;;;;;;14.61;35.41;99473.25;5109070;27;20028;-70
2022/05/03 05:18:14;;;;;;;1.00;0.30;;;;;;;14.82;35.62;99464.16;5109519;28;20031;-70
2022/05/03 05:20:40;;;;;;;0.25;0.25;;;;;;;14.55;34.88;99455.25;5106636;28;20095;-70
2022/05/03 05:23:06;;;;;;;2.28;0.38;;;;;;;14.38;35.42;99455.34;5106695;28;20032;-70
2022/05/03 05:25:31;;;;;;;0.52;0.30;;;;;;;15.01;34.53;99454.22;5112368;27;20039;-70
2022/05/03 05:27:57;;;;;;;1.10;0.60;;;;;;;15.19;34.37;99463.13;5110182;28;20039;-70
2022/05/03 05:30:22;;;;;;;0.90;0.35;;;;;;;15.09;34.30;99447.78;5103707;28;20043;-69
2022/05/03 05:32:48;;;;;;;0.25;0.20;;;;;;;14.86;34.14;99459.56;5106068;28;20063;-69
2022/05/03 05:35:14;;;;;;;0.45;0.30;;;;;;;14.72;35.09;99452.34;5110233;28;20027;-69
2022/05/03 05:37:40;;;;;;;0.45;0.40;;;;;;;14.78;34.43;99462.06;5108858;28;20407;-69
2022/05/03 05:40:06;;;;;;;1.60;0.65;;;;;;;14.89;34.17;99467.16;5110221;28;20164;-70
2022/05/03 05:42:32;;;;;;;0.20;0.20;;;;;;;14.81;34.71;99459.78;5105483;28;20035;-70
2022/05/03 05:44:58;;;;;;;0.90;0.25;;;;;;;14.76;34.75;99472.66;5109008;28;20084;-70
2022/05/03 05:47:24;;;;;;;1.70;0.50;;;;;;;15.23;33.50;99461.31;5105584;28;20065;-70
2022/05/03 05:49:49;;;;;;;0.47;0.20;;;;;;;15.64;33.99;99462.38;5103718;28;20031;-70
2022/05/03 05:55:00;;;;;;;0.45;0.28;;;;;;;16.34;32.29;99443.69;5102926;28;20057;-70
2022/05/03 05:57:25;;;;;;;0.75;0.35;;;;;;;16.41;32.02;99451.38;5101715;28;20043;-70
2022/05/03 05:59:51;;;;;;;0.63;0.30;;;;;;;16.67;31.62;99451.84;5107878;27;20076;-70
2022/05/03 06:02:16;;;;;;;1.15;0.35;;;;;;;16.62;31.34;99451.22;5115850;27;20031;-71
2022/05/03 06:04:42;;;;;;;2.30;0.35;;;;;;;16.40;31.54;99445.03;5112318;27;20137;-70
2022/05/03 06:07:07;;;;;;;0.28;0.20;;;;;;;16.59;31.12;99450.75;5107366;27;20035;-71
2022/05/03 06:09:34;;;;;;;1.63;0.50;;;;;;;16.58;32.04;99460.22;5111151;27;20031;-71
2022/05/03 06:11:59;;;;;;;0.50;0.30;;;;;;;16.78;31.01;99461.25;5109253;27;20050;-71
2022/05/03 06:14:25;;;;;;;1.00;0.30;;;;;;;16.61;30.76;99457.91;5117297;27;20036;-71
2022/05/03 06:16:53;;;;;;;0.20;0.20;;;;;;;16.61;30.83;99450.41;5115248;27;20484;-72
2022/05/03 06:19:19;;;;;;;1.58;0.32;;;;;;;16.69;30.43;99460.59;5116902;27;20607;-70
2022/05/03 06:21:45;;;;;;;0.75;0.30;;;;;;;16.24;31.06;99461.56;5114007;27;20035;-70
2022/05/03 06:24:11;;;;;;;2.55;0.40;;;;;;;16.09;30.89;99456.72;5110150;27;20131;-71
2022/05/03 06:26:37;;;;;;;1.63;0.60;;;;;;;16.44;30.86;99464.53;5109016;28;21017;-70
2022/05/03 06:29:05;;;;;;;1.17;0.30;;;;;;;16.56;30.70;99465.31;5109403;28;20035;-71
2022/05/03 06:31:30;;;;;;;2.25;0.70;;;;;;;16.79;30.82;99471.16;5105368;27;20059;-71
2022/05/03 06:33:56;;;;;;;1.23;0.50;;;;;;;16.91;30.74;99477.84;5111423;28;20074;-71
2022/05/03 06:36:22;;;;;;;0.77;0.20;;;;;;;16.30;31.01;99473.19;5104898;27;20395;-71
2022/05/03 06:38:48;;;;;;;1.77;0.40;;;;;;;16.18;31.11;99478.75;5111856;27;20088;-71
2022/05/03 06:41:15;;;;;;;1.05;0.30;;;;;;;15.65;32.24;99464.78;5090953;27;20028;-72
2022/05/03 06:43:41;;;;;;;1.35;0.35;;;;;;;15.85;32.66;99474.13;5104270;27;20139;-72
2022/05/03 06:46:06;;;;;;;2.40;0.40;;;;;;;15.99;32.89;99476.56;5109434;27;20044;-72
2022/05/03 06:48:32;;;;;;;3.05;0.52;;;;;;;16.29;32.23;99480.69;5105562;27;20035;-72
2022/05/03 06:50:58;;;;;;;1.80;0.38;;;;;;;16.75;32.11;99480.53;5106497;27;20081;-71
2022/05/03 06:53:23;;;;;;;0.40;0.22;;;;;;;17.48;31.14;99494.09;5106881;27;20512;-71
2022/05/03 06:55:49;;;;;;;1.02;0.50;;;;;;;17.83;30.83;99490.66;5112126;28;20050;-71
2022/05/03 06:58:14;;;;;;;0.40;0.40;;;;;;;17.79;30.70;99496.13;5109818;28;20031;-71
2022/05/03 07:00:40;;;;;;;0.63;0.30;;;;;;;18.02;30.23;99487.97;5096154;28;20046;-71
2022/05/03 07:03:06;;;;;;;1.73;0.45;;;;;;;17.45;30.46;99486.47;5109126;27;20044;-71
2022/05/03 07:05:32;;;;;;;0.47;0.30;;;;;;;16.61;31.12;99488.38;5110394;28;20406;-71
2022/05/03 07:07:59;;;;;;;4.67;0.40;;;;;;;16.53;31.48;99502.03;5101831;28;20051;-71
2022/05/03 07:10:25;;;;;;;1.13;0.32;;;;;;;16.64;31.70;99485.72;5091573;28;20339;-72
2022/05/03 07:12:50;;;;;;;0.67;0.40;;;;;;;16.82;31.36;99494.59;5092382;28;20044;-72
2022/05/03 07:15:18;;;;;;;2.27;0.50;;;;;;;16.86;31.17;99495.53;5099094;28;20044;-72
2022/05/03 07:23:15;;;;;;;2.83;0.60;;;;;;;17.64;29.61;99502.44;5095260;28;20085;-74
2022/05/03 07:25:41;;;;;;;2.65;0.50;;;;;;;18.27;29.26;99502.47;5101598;28;20497;-72
2022/05/03 07:28:07;;;;;;;0.88;0.47;;;;;;;18.51;29.46;99523.66;5112480;28;20035;-73
2022/05/03 07:30:34;;;;;;;3.45;0.85;;;;;;;18.45;28.91;99512.03;5105310;28;20046;-73
2022/05/03 07:33:00;;;;;;;2.60;0.50;;;;;;;18.23;29.39;99507.97;5093435;28;20036;-72
2022/05/03 07:35:25;;;;;;;1.37;0.40;;;;;;;18.52;29.58;99512.19;5102019;28;20501;-72
2022/05/03 07:37:51;;;;;;;4.60;0.70;;;;;;;18.87;28.66;99505.84;5104549;28;20035;-73
2022/05/03 07:40:17;;;;;;;1.40;0.53;;;;;;;18.31;29.44;99523.59;5103247;28;20028;-73
2022/05/03 07:42:43;;;;;;;2.27;1.00;;;;;;;18.26;29.64;99521.13;5106206;28;20388;-73
2022/05/03 07:45:09;;;;;;;1.50;0.70;;;;;;;18.73;29.05;99523.00;5099876;28;20032;-72
2022/05/03 07:47:35;;;;;;;2.15;0.93;;;;;;;18.55;28.89;99530.91;5103098;28;20494;-73
2022/05/03 07:50:01;;;;;;;0.40;0.40;;;;;;;18.67;28.15;99535.59;5100062;28;20036;-73
2022/05/03 07:52:27;;;;;;;1.55;0.70;;;;;;;18.31;28.57;99534.72;5092145;28;20298;-73
2022/05/03 07:54:53;;;;;;;2.13;0.60;;;;;;;18.87;27.97;99528.88;5092963;28;20050;-72
2022/05/03 07:57:19;;;;;;;1.33;0.50;;;;;;;18.89;27.52;99539.63;5100934;28;20048;-73
2022/05/03 07:59:44;;;;;;;5.37;0.77;;;;;;;19.05;27.49;99542.38;5107112;28;20078;-71
2022/05/03 08:02:11;;;;;;;3.53;0.40;;;;;;;19.15;27.08;99548.16;5105545;27;20035;-72
2022/05/03 08:04:37;;;;;;;0.73;0.40;;;;;;;19.03;27.24;99561.41;5110648;28;20078;-72
2022/05/03 08:07:03;;;;;;;0.90;0.60;;;;;;;18.65;27.39;99537.91;5112156;28;20035;-73
2022/05/03 08:09:29;;;;;;;0.80;0.43;;;;;;;18.69;26.58;99552.69;5097623;28;20093;-72
2022/05/03 08:11:54;;;;;;;5.60;0.63;;;;;;;17.95;27.15;99555.22;5102721;27;20043;-74
2022/05/03 08:14:21;;;;;;;2.15;0.80;;;;;;;17.09;28.31;99560.34;5107313;27;20413;-72
2022/05/03 08:16:47;;;;;;;0.50;0.50;;;;;;;16.90;28.25;99560.16;5104992;28;20043;-73
2022/05/03 08:19:12;;;;;;;0.88;0.43;;;;;;;16.97;28.61;99573.41;5092469;28;20097;-72
2022/05/03 08:21:39;;;;;;;1.75;0.57;;;;;;;16.71;28.50;99577.38;5091501;28;20399;-72
2022/05/03 08:24:05;;;;;;;3.90;0.50;;;;;;;16.09;30.12;99570.19;5092410;28;20040;-71
2022/05/03 08:26:31;;;;;;;1.92;0.43;;;;;;;16.20;29.72;99576.91;5092198;28;20140;-72
2022/05/03 08:28:57;;;;;;;2.20;0.50;;;;;;;16.04;29.65;99583.44;5108010;28;20070;-72
2022/05/03 08:31:22;;;;;;;2.80;0.28;;;;;;;15.93;30.08;99578.34;5111555;28;20492;-72
2022/05/03 08:33:48;;;;;;;0.93;0.20;;;;;;;16.18;29.99;99600.53;5112809;28;20092;-71
2022/05/03 08:36:15;;;;;;;0.43;0.20;;;;;;;16.01;30.40;99595.22;5110329;28;20044;-72
2022/05/03 08:44:09;;;;;;;3.35;0.30;;;;;;;16.01;29.84;99603.50;5092357;28;20036;-71
2022/05/03 08:46:36;;;;;;;0.40;0.40;;;;;;;15.73;30.04;99604.13;5091771;28;20059;-71
2022/05/03 08:49:04;;;;;;;0.63;0.28;;;;;;;15.75;30.68;99606.53;5091584;28;20067;-71
2022/05/03 08:51:31;;;;;;;0.95;0.70;;;;;;;15.54;29.91;99606.53;5090864;28;20042;-72
2022/05/03 08:53:58;;;;;;;0.82;0.25;;;;;;;15.89;30.27;99605.09;5091726;28;20044;-73
2022/05/03 08:56:24;;;;;;;1.60;0.43;;;;;;;16.21;29.30;99600.66;5093429;28;20088;-72
2022/05/03 08:58:51;;;;;;;0.60;0.50;;;;;;;16.23;29.29;99594.78;5091515;28;20274;-73
2022/05/03 09:01:17;;;;;;;0.52;0.38;;;;;;;15.70;29.39;99607.56;5075009;28;20066;-73
2022/05/03 09:03:43;;;;;;;1.02;0.45;;;;;;;15.13;29.96;99619.25;5112005;28;20032;-73
2022/05/03 09:06:08;;;;;;;2.20;0.50;;;;;;;14.80;30.74;99629.38;5109117;28;20046;-72
2022/05/03 09:08:34;;;;;;;0.98;0.40;;;;;;;14.94;31.28;99613.38;5103669;28;20076;-71
2022/05/03 09:11:12;;;;;;;0.38;0.28;;;;;;;15.01;30.41;99608.13;5112088;28;20035;-74
2022/05/03 09:13:37;;;;;;;1.03;0.30;;;;;;;14.79;30.57;99609.25;5111776;28;20035;-71
2022/05/03 09:16:15;;;;;;;1.85;0.22;;;;;;;14.08;30.54;99625.59;5111517;28;20046;-72
2022/05/03 09:18:43;;;;;;;2.47;0.57;;;;;;;13.72;30.77;99624.06;5105356;28;20044;-72
2022/05/03 09:24:13;;;;;;;1.13;1.08;;;;;;;13.01;33.38;99628.22;5090576;28;20055;-72
2022/05/03 09:26:39;;;;;;;0.55;0.25;;;;;;;12.22;34.06;99648.38;5090971;28;20513;-73
2022/05/03 09:29:10;;;;;;;1.00;0.20;;;;;;;11.40;34.23;99655.91;5089795;28;20039;-73
2022/05/03 09:31:43;;;;;;;0.43;0.28;;;;;;;10.67;36.53;99651.47;5089921;28;20040;-73
2022/05/03 09:34:26;;;;;;;0.82;0.40;;;;;;;10.11;38.27;99643.50;5089360;28;20032;-72
2022/05/03 09:36:58;;;;;;;1.52;0.60;;;;;;;9.78;38.67;99656.41;5105832;28;20778;-73
2022/05/03 09:39:41;;;;;;;2.63;0.65;;;;;;;9.57;40.11;99664.97;5111474;28;20103;-73
2022/05/03 09:42:15;;;;;;;2.85;0.57;;;;;;;9.27;40.97;99662.69;5111311;28;20066;-73
2022/05/03 09:44:53;;;;;;;7.95;0.77;;;;;;;9.03;41.83;99666.31;5107460;28;20067;-73
2022/05/03 09:47:20;;;;;;;3.13;0.50;;;;;;;8.89;42.01;99672.81;5101967;28;20521;-73
2022/05/03 09:49:46;;;;;;;2.45;0.70;;;;;;;8.83;42.52;99677.50;5110372;28;20075;-73
2022/05/03 09:52:29;;;;;;;3.25;0.50;;;;;;;8.67;43.00;99671.41;5110409;28;20404;-73
2022/05/03 09:55:03;;;;;;;1.98;0.50;;;;;;;8.65;43.36;99676.38;5091872;28;20039;-73
2022/05/03 09:57:31;;;;;;;0.98;0.50;;;;;;;8.72;43.48;99682.31;5099684;28;20494;-74
2022/05/03 09:59:58;;;;;;;5.93;0.60;;;;;;;8.57;43.55;99685.22;5109054;28;20044;-73
2022/05/03 10:02:25;;;;;;;1.90;0.52;;;;;;;8.41;44.00;99687.31;5115965;28;20040;-73
2022/05/03 10:04:53;;;;;;;2.33;0.45;;;;;;;8.39;44.86;99688.72;5089374;28;20055;-74
2022/05/03 10:07:20;;;;;;;3.17;0.40;;;;;;;8.47;44.36;99701.72;5094610;28;20049;-73
2022/05/03 10:09:46;;;;;;;3.17;0.45;;;;;;;8.62;44.17;99703.47;5101805;28;20063;-71
2022/05/03 10:12:13;;;;;;;1.90;0.57;;;;;;;8.71;44.65;99694.34;5095705;28;20043;-71
2022/05/03 10:14:40;;;;;;;3.22;0.43;;;;;;;8.73;44.08;99705.81;5101374;28;20048;-71
2022/05/03 10:22:45;;;;;;;1.02;0.57;;;;;;;8.56;44.63;99713.69;5094639;28;20031;-72
2022/05/03 10:25:10;;;;;;;5.65;1.33;;;;;;;8.54;45.34;99717.81;5091412;28;20046;-72
2022/05/03 10:27:56;;;;;;;4.38;0.65;;;;;;;8.49;44.58;99715.91;5093543;28;20052;-72
2022/05/03 10:30:23;;;;;;;1.25;0.65;;;;;;;8.44;45.29;99714.06;5080688;28;20218;-72
2022/05/03 10:33:19;;;;;;;1.63;1.15;;;;;;;8.32;45.39;99716.34;5092411;28;20422;-72
2022/05/03 10:35:46;;;;;;;3.70;0.52;;;;;;;8.29;45.67;99721.56;5107003;28;20560;-72
2022/05/03 10:38:12;;;;;;;2.30;0.52;;;;;;;8.29;45.67;99735.25;5104167;28;20386;-72
2022/05/03 10:40:48;;;;;;;3.22;0.60;;;;;;;8.27;45.33;99735.53;5090763;28;20038;-71
2022/05/03 10:43:27;;;;;;;3.70;0.52;;;;;;;8.24;45.95;99740.75;5105201;28;20036;-72
2022/05/03 10:45:58;;;;;;;5.25;0.80;;;;;;;8.18;45.77;99741.91;5109998;28;20032;-72
2022/05/03 10:48:27;;;;;;;2.60;0.60;;;;;;;8.11;45.75;99737.59;5100571;28;20036;-73
2022/05/03 10:50:58;;;;;;;2.45;0.75;;;;;;;8.09;45.93;99744.44;5106331;28;20039;-72
2022/05/03 10:53:27;;;;;;;3.42;0.68;;;;;;;8.13;46.40;99732.66;5111194;28;20039;-72
2022/05/03 10:56:16;;;;;;;3.97;0.40;;;;;;;8.19;44.59;99741.63;5105265;28;20512;-72
2022/05/03 10:58:46;;;;;;;1.40;0.63;;;;;;;8.20;44.84;99745.19;5103745;28;20294;-72
2022/05/03 11:01:23;;;;;;;6.38;0.65;;;;;;;8.23;44.72;99744.59;5102907;28;20065;-72
2022/05/03 11:03:54;;;;;;;3.03;0.60;;;;;;;8.29;44.59;99754.38;5112399;28;20059;-72
2022/05/03 11:06:25;;;;;;;1.40;0.70;;;;;;;8.27;44.61;99757.41;5099873;28;20039;-72
2022/05/03 11:09:11;;;;;;;4.57;0.68;;;;;;;8.22;44.71;99760.19;5114053;28;20040;-72
2022/05/03 11:11:50;;;;;;;6.70;0.82;;;;;;;8.26;45.20;99763.97;5113903;28;20048;-72
2022/05/03 11:14:16;;;;;;;4.05;0.80;;;;;;;8.21;44.69;99760.47;5113280;28;20126;-72
2022/05/03 11:16:50;;;;;;;1.90;0.55;;;;;;;8.14;44.69;99758.88;5112876;28;20139;-72
2022/05/03 11:19:17;;;;;;;1.85;0.63;;;;;;;8.08;44.33;99770.94;5095498;27;20040;-73
2022/05/03 11:21:47;;;;;;;2.97;0.75;;;;;;;8.06;44.48;99764.16;5093528;28;20032;-73
2022/05/03 11:24:26;;;;;;;1.33;0.50;;;;;;;8.07;44.93;99772.06;5105208;28;20074;-72
2022/05/03 11:27:11;;;;;;;2.50;1.48;;;;;;;8.15;44.54;99762.41;5109388;28;20059;-71
2022/05/03 11:29:41;;;;;;;0.40;0.40;;;;;;;8.16;44.40;99775.81;5098550;28;20044;-72
2022/05/03 11:32:07;;;;;;;2.30;0.60;;;;;;;8.13;44.34;99781.00;5112943;28;20481;-71
2022/05/03 11:34:34;;;;;;;4.15;0.90;;;;;;;8.10;44.75;99778.84;5109547;28;20047;-72
2022/05/03 11:37:01;;;;;;;2.28;0.50;;;;;;;8.15;45.13;99782.34;5093214;28;20048;-72
2022/05/03 11:39:27;;;;;;;2.75;0.43;;;;;;;8.11;44.11;99775.03;5093064;28;20037;-72
2022/05/03 11:41:53;;;;;;;2.60;0.50;;;;;;;8.08;44.30;99786.53;5093191;28;20044;-72
2022/05/03 11:44:19;;;;;;;1.42;0.38;;;;;;;8.06;45.02;99792.28;5099346;28;20039;-72
2022/05/03 11:46:47;;;;;;;2.70;0.70;;;;;;;8.09;44.90;99785.44;5118820;27;20409;-72
2022/05/03 11:49:14;;;;;;;1.87;0.50;;;;;;;8.03;44.33;99790.13;5091689;28;20040;-72
2022/05/03 11:57:16;;;;;;;3.13;0.75;;;;;;;7.96;44.81;99811.47;5102314;28;20035;-71
2022/05/03 11:59:45;;;;;;;1.70;0.70;;;;;;;8.00;44.97;99796.16;5112537;27;20406;-71
2022/05/03 12:02:21;;;;;;;3.63;0.80;;;;;;;7.98;44.98;99812.00;5103743;27;20044;-72
2022/05/03 12:05:06;;;;;;;1.52;0.73;;;;;;;7.93;44.97;99808.50;5115912;27;20043;-72
2022/05/03 12:07:35;;;;;;;0.43;0.43;;;;;;;7.83;45.88;99823.06;5112947;28;20039;-71
2022/05/03 12:10:01;;;;;;;0.50;0.50;;;;;;;7.78;45.70;99823.06;5106360;28;20035;-71
2022/05/03 12:12:45;;;;;;;1.75;0.50;;;;;;;7.76;45.97;99822.53;5112656;27;20135;-71
2022/05/03 12:15:28;;;;;;;2.53;0.70;;;;;;;7.86;46.25;99817.03;5102039;28;20032;-71
2022/05/03 12:18:07;;;;;;;1.15;0.70;;;;;;;7.87;45.22;99821.38;5112087;27;20063;-71
2022/05/03 12:20:57;;;;;;;1.30;0.70;;;;;;;7.86;45.47;99820.56;5112348;28;20081;-72
2022/05/03 12:23:37;;;;;;;2.45;1.00;;;;;;;7.91;45.23;99833.38;5114386;27;20065;-71
2022/05/03 12:26:21;;;;;;;2.28;0.90;;;;;;;7.91;45.33;99838.81;5109137;27;20051;-72
2022/05/03 12:28:51;;;;;;;2.50;1.20;;;;;;;7.92;45.60;99835.00;5110893;27;20491;-71